createdAt,value
2023-04-16T00:01:58.415Z,7.60
2023-04-16T00:04:25.562Z,8.57
2023-04-16T00:06:52.592Z,6.15
2023-04-16T00:09:19.516Z,8.13
2023-04-16T00:11:46.286Z,7.03
2023-04-16T00:14:13.139Z,6.07
2023-04-16T00:16:40.219Z,5.27
2023-04-16T00:19:07.459Z,8.23
2023-04-16T00:21:34.625Z,8.60
2023-04-16T00:24:01.332Z,6.50
2023-04-16T00:26:28.291Z,5.75
2023-04-16T00:28:55.409Z,4.27
2023-04-16T00:31:29.846Z,6.72
2023-04-16T00:33:57.034Z,5.70
2023-04-16T00:36:25.235Z,7.05
2023-04-16T00:38:52.191Z,6.28
2023-04-16T00:41:19.237Z,7.47
2023-04-16T00:43:46.328Z,8.23
2023-04-16T00:46:13.311Z,5.25
2023-04-16T00:48:41.335Z,7.30
2023-04-16T00:51:09.178Z,6.45
2023-04-16T00:53:36.380Z,5.33
2023-04-16T00:56:04.845Z,7.25
2023-04-16T00:58:33.329Z,8.98
2023-04-16T01:01:00.692Z,7.97
2023-04-16T01:03:38.646Z,6.18
2023-04-16T01:06:06.802Z,7.20
2023-04-16T01:08:33.690Z,5.75
2023-04-16T01:11:00.498Z,8.57
2023-04-16T01:13:27.581Z,6.00
2023-04-16T01:15:54.710Z,8.23
2023-04-16T01:18:23.213Z,7.37
2023-04-16T01:20:51.277Z,6.75
2023-04-16T01:23:18.940Z,7.97
2023-04-16T01:25:46.674Z,6.68
2023-04-16T01:28:13.692Z,9.32
2023-04-16T01:30:40.723Z,7.63
2023-04-16T01:33:39.693Z,9.82
2023-04-16T01:36:07.764Z,7.25
2023-04-16T01:38:34.663Z,8.90
2023-04-16T01:41:01.969Z,7.43
2023-04-16T01:43:29.089Z,8.20
2023-04-16T01:46:18.047Z,10.27
2023-04-16T01:48:45.243Z,8.27
2023-04-16T01:51:12.261Z,9.23
2023-04-16T01:53:39.136Z,9.75
2023-04-16T01:56:06.794Z,10.20
2023-04-16T01:58:34.311Z,11.23
2023-04-16T02:01:01.581Z,12.27
2023-04-16T02:03:28.794Z,9.27
2023-04-16T02:05:55.946Z,8.98
2023-04-16T02:08:23.327Z,11.80
2023-04-16T02:10:50.776Z,11.05
2023-04-16T02:13:17.582Z,10.18
2023-04-16T02:15:48.241Z,13.30
2023-04-16T02:18:18.156Z,11.00
2023-04-16T02:20:47.327Z,10.17
2023-04-16T02:23:17.443Z,10.13
2023-04-16T02:25:46.565Z,10.38
2023-04-16T02:28:15.980Z,8.25
2023-04-16T02:30:44.593Z,10.38
2023-04-16T02:33:13.209Z,10.10
2023-04-16T02:35:49.237Z,12.48
2023-04-16T02:38:16.075Z,10.70
2023-04-16T02:40:43.819Z,10.63
2023-04-16T02:43:11.130Z,13.05
2023-04-16T02:45:37.966Z,12.57
2023-04-16T02:48:07.299Z,12.90
2023-04-16T02:50:34.116Z,16.00
2023-04-16T02:53:00.980Z,10.57
2023-04-16T02:55:29.410Z,15.07
2023-04-16T02:57:56.325Z,15.03
2023-04-16T03:00:23.163Z,15.00
2023-04-16T03:02:50.117Z,12.63
2023-04-16T03:05:17.212Z,13.30
2023-04-16T03:07:44.098Z,13.18
2023-04-16T03:10:11.991Z,11.03
2023-04-16T03:12:39.209Z,11.93
2023-04-16T03:15:07.369Z,12.55
2023-04-16T03:17:34.280Z,12.95
2023-04-16T03:20:01.624Z,11.95
2023-04-16T03:22:28.661Z,13.00
2023-04-16T03:24:55.620Z,10.55
2023-04-16T03:27:22.469Z,12.48
2023-04-16T03:29:49.411Z,12.20
2023-04-16T03:32:17.317Z,17.77
2023-04-16T03:34:44.442Z,17.23
2023-04-16T03:37:12.092Z,15.68
2023-04-16T03:39:39.290Z,13.70
2023-04-16T03:42:06.233Z,18.38
2023-04-16T03:44:34.470Z,15.77
2023-04-16T03:47:02.009Z,15.10
2023-04-16T03:49:29.020Z,12.63
2023-04-16T03:51:56.773Z,16.83
2023-04-16T03:54:25.598Z,16.80
2023-04-16T03:57:02.406Z,17.13
2023-04-16T03:59:29.480Z,14.27
2023-04-16T04:01:56.483Z,17.17
2023-04-16T04:04:23.467Z,19.63
2023-04-16T04:06:50.430Z,21.50
2023-04-16T04:09:17.777Z,20.30
2023-04-16T04:11:44.499Z,22.77
2023-04-16T04:14:11.243Z,18.42
2023-04-16T04:16:38.137Z,22.00
2023-04-16T04:19:05.102Z,18.67
2023-04-16T04:21:31.961Z,20.30
2023-04-16T04:23:58.829Z,23.27
2023-04-16T04:26:25.820Z,15.50
2023-04-16T04:28:52.626Z,16.45
2023-04-16T04:31:19.510Z,15.30
2023-04-16T04:33:46.439Z,16.98
2023-04-16T04:36:13.408Z,16.70
2023-04-16T04:38:40.704Z,18.23
2023-04-16T04:41:07.802Z,18.50
2023-04-16T04:43:37.042Z,19.67
2023-04-16T04:46:04.062Z,22.67
2023-04-16T04:48:31.915Z,18.93
2023-04-16T04:50:58.957Z,15.82
2023-04-16T04:53:25.927Z,21.65
2023-04-16T04:55:55.603Z,22.02
2023-04-16T04:58:25.627Z,19.90
2023-04-16T05:00:52.628Z,18.17
2023-04-16T05:03:21.502Z,25.10
2023-04-16T05:05:48.573Z,19.90
2023-04-16T05:08:15.604Z,16.83
2023-04-16T05:10:42.394Z,23.58
2023-04-16T05:13:09.246Z,27.30
2023-04-16T05:15:36.026Z,22.23
2023-04-16T05:18:02.937Z,26.23
2023-04-16T05:20:29.852Z,23.80
2023-04-16T05:22:56.655Z,26.80
2023-04-16T05:25:23.594Z,28.37
2023-04-16T05:27:50.402Z,28.75
2023-04-16T05:30:17.131Z,34.33
2023-04-16T05:32:43.924Z,35.78
2023-04-16T05:35:11.090Z,30.85
2023-04-16T05:37:37.983Z,30.13
2023-04-16T05:40:05.240Z,33.03
2023-04-16T05:42:32.269Z,28.63
2023-04-16T05:44:59.113Z,27.10
2023-04-16T05:47:25.960Z,26.52
2023-04-16T05:49:52.845Z,23.67
2023-04-16T05:52:19.745Z,26.88
2023-04-16T05:54:46.552Z,22.83
2023-04-16T05:57:14.132Z,23.27
2023-04-16T05:59:41.075Z,26.25
2023-04-16T06:02:08.069Z,24.03
2023-04-16T06:04:35.889Z,23.25
2023-04-16T06:07:02.762Z,24.88
2023-04-16T06:09:30.567Z,24.73
2023-04-16T06:11:57.951Z,23.90
2023-04-16T06:14:24.818Z,21.27
2023-04-16T06:16:51.594Z,25.42
2023-04-16T06:19:18.387Z,24.10
2023-04-16T06:21:45.500Z,28.63
2023-04-16T06:24:13.286Z,22.98
2023-04-16T06:26:40.427Z,23.80
2023-04-16T06:29:07.506Z,27.05
2023-04-16T06:31:34.700Z,23.45
2023-04-16T06:34:01.641Z,28.50
2023-04-16T06:36:29.155Z,25.48
2023-04-16T06:38:56.168Z,21.47
2023-04-16T06:41:25.432Z,22.83
2023-04-16T06:43:52.421Z,22.98
2023-04-16T06:46:19.277Z,22.92
2023-04-16T06:48:46.084Z,20.20
2023-04-16T06:51:13.360Z,25.27
2023-04-16T06:53:40.347Z,20.30
2023-04-16T06:56:07.419Z,24.45
2023-04-16T06:58:34.250Z,18.45
2023-04-16T07:01:02.708Z,18.25
2023-04-16T07:03:29.743Z,20.47
2023-04-16T07:05:56.871Z,21.02
2023-04-16T07:08:24.460Z,20.20
2023-04-16T07:10:52.742Z,23.05
2023-04-16T07:13:20.446Z,21.63
2023-04-16T07:15:47.708Z,22.67
2023-04-16T07:18:14.532Z,21.05
2023-04-16T07:20:41.524Z,22.08
2023-04-16T07:23:08.317Z,23.13
2023-04-16T07:25:35.198Z,20.75
2023-04-16T07:28:03.731Z,19.43
2023-04-16T07:30:34.221Z,22.10
2023-04-16T07:33:04.538Z,19.75
2023-04-16T07:35:32.302Z,23.02
2023-04-16T07:37:59.218Z,20.88
2023-04-16T07:40:26.611Z,22.43
2023-04-16T07:42:54.413Z,19.50
2023-04-16T07:45:21.176Z,22.90
2023-04-16T07:47:48.013Z,23.75
2023-04-16T07:50:16.341Z,21.15
2023-04-16T07:52:45.283Z,21.07
2023-04-16T07:55:12.107Z,22.42
2023-04-16T07:57:38.934Z,18.52
2023-04-16T08:00:06.946Z,17.38
2023-04-16T08:02:43.790Z,20.48
2023-04-16T08:05:12.490Z,17.47
2023-04-16T08:07:39.334Z,19.83
2023-04-16T08:10:06.636Z,20.55
2023-04-16T08:12:33.574Z,20.30
2023-04-16T08:15:00.403Z,16.27
2023-04-16T08:17:28.769Z,18.23
2023-04-16T08:19:55.649Z,16.58
2023-04-16T08:22:22.577Z,21.52
2023-04-16T08:24:49.470Z,23.77
2023-04-16T08:27:19.739Z,18.55
2023-04-16T08:29:48.012Z,19.97
2023-04-16T08:32:14.998Z,26.80
2023-04-16T08:34:42.142Z,22.98
2023-04-16T08:37:09.427Z,18.60
2023-04-16T08:39:36.490Z,21.90
2023-04-16T08:42:06.023Z,20.93
2023-04-16T08:44:35.205Z,15.70
2023-04-16T08:47:02.845Z,17.65
2023-04-16T08:49:30.026Z,17.10
2023-04-16T08:51:57.544Z,20.63
2023-04-16T08:55:00.160Z,17.80
2023-04-16T08:57:35.624Z,18.35
2023-04-16T09:00:03.181Z,16.92
2023-04-16T09:02:31.557Z,17.27
2023-04-16T09:05:00.664Z,16.70
2023-04-16T09:07:29.579Z,15.63
2023-04-16T09:09:59.462Z,20.10
2023-04-16T09:12:26.474Z,17.50
2023-04-16T09:14:53.440Z,15.10
2023-04-16T09:17:20.384Z,19.15
2023-04-16T09:19:47.404Z,20.17
2023-04-16T09:22:14.384Z,14.93
2023-04-16T09:24:41.978Z,18.13
2023-04-16T09:27:09.170Z,20.10
2023-04-16T09:29:37.769Z,17.08
2023-04-16T09:32:09.281Z,14.03
2023-04-16T09:35:00.577Z,15.10
2023-04-16T09:37:31.287Z,15.18
2023-04-16T09:40:04.058Z,18.05
2023-04-16T09:42:36.462Z,12.50
2023-04-16T09:45:05.696Z,13.47
2023-04-16T09:47:41.521Z,12.50
2023-04-16T09:50:11.923Z,14.73
2023-04-16T09:52:39.389Z,15.93
2023-04-16T09:55:06.653Z,15.27
2023-04-16T09:57:33.527Z,15.40
2023-04-16T10:00:05.946Z,12.95
2023-04-16T10:02:34.622Z,15.15
2023-04-16T10:05:03.296Z,13.45
2023-04-16T10:07:36.006Z,16.48
2023-04-16T10:10:04.360Z,14.73
2023-04-16T10:12:32.860Z,15.65
2023-04-16T10:14:59.804Z,14.38
2023-04-16T10:17:29.906Z,15.75
2023-04-16T10:19:58.106Z,15.05
2023-04-16T10:22:25.835Z,13.13
2023-04-16T10:24:53.201Z,13.40
2023-04-16T10:27:21.177Z,12.68
2023-04-16T10:29:49.264Z,15.07
2023-04-16T10:32:17.913Z,12.77
2023-04-16T10:34:45.117Z,13.67
2023-04-16T10:37:12.539Z,13.98
2023-04-16T10:39:39.363Z,12.32
2023-04-16T10:42:10.565Z,14.63
2023-04-16T10:44:37.990Z,16.70
2023-04-16T10:47:12.292Z,13.87
2023-04-16T10:49:39.782Z,15.75
2023-04-16T10:52:19.138Z,16.80
2023-04-16T10:54:50.261Z,15.90
2023-04-16T10:57:19.639Z,14.25
2023-04-16T10:59:49.301Z,19.53
2023-04-16T11:02:19.970Z,17.52
2023-04-16T11:04:48.983Z,16.83
2023-04-16T11:07:19.539Z,18.45
2023-04-16T11:09:59.770Z,18.23
2023-04-16T11:12:37.709Z,17.93
2023-04-16T11:15:09.450Z,14.57
2023-04-16T11:17:52.773Z,18.15
2023-04-16T11:20:21.795Z,16.67
2023-04-16T11:22:58.257Z,17.67
2023-04-16T11:25:31.890Z,17.63
2023-04-16T11:28:01.532Z,16.75
2023-04-16T11:30:36.280Z,17.20
2023-04-16T11:33:04.166Z,17.10
2023-04-16T11:35:31.511Z,18.85
2023-04-16T11:37:58.779Z,19.57
2023-04-16T11:40:29.120Z,16.98
2023-04-16T11:42:56.883Z,16.92
2023-04-16T11:45:24.815Z,17.00
2023-04-16T11:47:55.449Z,20.67
2023-04-16T11:50:27.659Z,21.07
2023-04-16T11:53:04.824Z,20.38
2023-04-16T11:55:31.608Z,18.63
2023-04-16T11:58:10.999Z,21.38
2023-04-16T12:00:37.891Z,19.23
2023-04-16T12:03:04.846Z,16.83
2023-04-16T12:05:39.383Z,21.90
2023-04-16T12:08:07.945Z,19.15
2023-04-16T12:10:37.287Z,21.08
2023-04-16T12:13:11.462Z,19.30
2023-04-16T12:16:16.604Z,20.20
2023-04-16T12:19:01.301Z,19.35
2023-04-16T12:22:00.758Z,19.27
2023-04-16T12:24:27.689Z,19.08
2023-04-16T12:27:03.141Z,19.48
2023-04-16T12:29:30.044Z,19.33
2023-04-16T12:31:56.914Z,21.70
2023-04-16T12:34:25.547Z,23.85
2023-04-16T12:37:10.938Z,23.67
2023-04-16T12:39:37.744Z,19.95
2023-04-16T12:42:06.417Z,20.60
2023-04-16T12:44:33.255Z,22.05
2023-04-16T12:47:00.118Z,19.23
2023-04-16T12:49:26.911Z,17.27
2023-04-16T12:51:53.769Z,22.98
2023-04-16T12:54:20.558Z,18.07
2023-04-16T12:56:47.293Z,19.30
2023-04-16T12:59:14.266Z,21.17
2023-04-16T13:01:41.080Z,19.92
2023-04-16T13:04:08.092Z,19.58
2023-04-16T13:06:36.804Z,22.90
2023-04-16T13:09:04.856Z,19.42
2023-04-16T13:11:32.640Z,22.75
2023-04-16T13:13:59.514Z,21.40
2023-04-16T13:16:26.551Z,19.23
2023-04-16T13:18:53.375Z,19.67
2023-04-16T13:21:20.183Z,19.83
2023-04-16T13:23:47.091Z,22.05
2023-04-16T13:26:15.835Z,18.80
2023-04-16T13:28:42.664Z,19.00
2023-04-16T13:31:09.477Z,21.60
2023-04-16T13:33:36.567Z,20.05
2023-04-16T13:36:03.502Z,21.15
2023-04-16T13:38:30.254Z,16.65
2023-04-16T13:40:57.043Z,19.30
2023-04-16T13:43:24.157Z,16.10
2023-04-16T13:45:51.838Z,18.42
2023-04-16T13:48:18.762Z,19.52
2023-04-16T13:50:45.804Z,15.65
2023-04-16T13:53:12.661Z,19.75
2023-04-16T13:55:39.454Z,21.90
2023-04-16T13:58:07.234Z,19.05
2023-04-16T14:00:34.260Z,18.88
2023-04-16T14:03:01.294Z,21.40
2023-04-16T14:05:28.213Z,21.65
2023-04-16T14:07:54.949Z,18.67
2023-04-16T14:10:21.716Z,20.35
2023-04-16T14:12:48.528Z,20.38
2023-04-16T14:15:15.478Z,17.73
2023-04-16T14:17:44.143Z,17.02
2023-04-16T14:20:14.129Z,17.17
2023-04-16T14:22:42.536Z,18.40
2023-04-16T14:25:09.404Z,18.30
2023-04-16T14:27:36.441Z,19.65
2023-04-16T14:30:03.694Z,22.48
2023-04-16T14:32:30.716Z,19.10
2023-04-16T14:34:57.732Z,22.45
2023-04-16T14:37:24.616Z,18.83
2023-04-16T14:39:51.404Z,20.73
2023-04-16T14:42:18.342Z,18.35
2023-04-16T14:44:45.202Z,21.17
2023-04-16T14:47:12.050Z,19.65
2023-04-16T14:49:38.931Z,22.63
2023-04-16T14:52:06.985Z,19.42
2023-04-16T14:54:34.194Z,22.27
2023-04-16T14:57:02.053Z,20.87
2023-04-16T14:59:28.903Z,28.55
2023-04-16T15:01:57.036Z,25.02
2023-04-16T15:04:24.720Z,22.35
2023-04-16T15:06:51.703Z,20.92
2023-04-16T15:09:18.548Z,22.10
2023-04-16T15:11:45.760Z,23.08
2023-04-16T15:14:12.834Z,21.15
2023-04-16T15:16:40.013Z,20.70
2023-04-16T15:19:07.011Z,20.20
2023-04-16T15:21:33.802Z,24.40
2023-04-16T15:24:00.606Z,19.52
2023-04-16T15:26:27.655Z,21.88
2023-04-16T15:28:54.407Z,20.70
2023-04-16T15:31:21.887Z,20.27
2023-04-16T15:33:49.260Z,20.37
2023-04-16T15:36:16.453Z,20.15
2023-04-16T15:38:43.394Z,23.20
2023-04-16T15:41:10.954Z,22.50
2023-04-16T15:43:38.370Z,25.23
2023-04-16T15:46:05.444Z,22.57
2023-04-16T15:48:32.332Z,20.75
2023-04-16T15:50:59.098Z,18.10
2023-04-16T15:53:26.189Z,21.20
2023-04-16T15:55:53.817Z,20.52
2023-04-16T15:58:23.746Z,24.40
2023-04-16T16:00:50.851Z,25.70
2023-04-16T16:03:18.689Z,21.50
2023-04-16T16:05:47.989Z,24.05
2023-04-16T16:08:15.808Z,24.85
2023-04-16T16:10:43.081Z,20.70
2023-04-16T16:13:13.174Z,23.48
2023-04-16T16:15:43.202Z,22.48
2023-04-16T16:18:10.146Z,24.35
2023-04-16T16:20:37.186Z,23.42
2023-04-16T16:23:04.126Z,23.83
2023-04-16T16:25:31.058Z,19.98
2023-04-16T16:27:58.866Z,21.33
2023-04-16T16:30:26.394Z,25.67
2023-04-16T16:32:54.027Z,19.92
2023-04-16T16:35:20.985Z,24.63
2023-04-16T16:37:47.784Z,23.45
2023-04-16T16:40:14.945Z,25.23
2023-04-16T16:42:41.714Z,20.48
2023-04-16T16:45:09.241Z,20.10
2023-04-16T16:47:36.089Z,19.23
2023-04-16T16:50:03.393Z,22.67
2023-04-16T16:52:30.614Z,23.52
2023-04-16T16:54:57.983Z,21.65
2023-04-16T16:57:25.011Z,23.20
2023-04-16T16:59:51.822Z,22.60
2023-04-16T17:02:19.085Z,21.42
2023-04-16T17:04:46.097Z,24.77
2023-04-16T17:07:19.078Z,22.73
2023-04-16T17:09:46.177Z,22.95
2023-04-16T17:12:13.016Z,22.33
2023-04-16T17:14:39.969Z,24.40
2023-04-16T17:17:06.906Z,21.63
2023-04-16T17:19:33.751Z,24.98
2023-04-16T17:22:00.706Z,24.35
2023-04-16T17:24:27.581Z,25.70
2023-04-16T17:26:54.325Z,24.23
2023-04-16T17:29:25.818Z,22.52
2023-04-16T17:31:53.780Z,21.90
2023-04-16T17:34:21.099Z,22.75
2023-04-16T17:36:48.113Z,25.13
2023-04-16T17:39:14.974Z,26.88
2023-04-16T17:41:41.872Z,26.80
2023-04-16T17:44:11.127Z,25.35
2023-04-16T17:46:38.649Z,23.52
2023-04-16T17:49:05.698Z,25.67
2023-04-16T17:51:32.623Z,22.98
2023-04-16T17:53:59.480Z,24.30
2023-04-16T17:56:26.295Z,29.58
2023-04-16T17:58:53.079Z,29.23
2023-04-16T18:01:19.834Z,29.57
2023-04-16T18:03:46.866Z,26.17
2023-04-16T18:06:13.849Z,27.15
2023-04-16T18:08:40.756Z,25.40
2023-04-16T18:11:10.547Z,27.50
2023-04-16T18:13:37.512Z,23.83
2023-04-16T18:16:04.496Z,24.00
2023-04-16T18:18:31.309Z,23.70
2023-04-16T18:20:58.240Z,22.48
2023-04-16T18:23:25.373Z,29.02
2023-04-16T18:25:52.293Z,26.27
2023-04-16T18:28:19.256Z,24.13
2023-04-16T18:30:46.186Z,23.80
2023-04-16T18:33:39.020Z,24.75
2023-04-16T18:36:02.209Z,26.35
2023-04-16T18:38:32.199Z,29.50
2023-04-16T18:40:59.106Z,25.25
2023-04-16T18:43:27.063Z,26.65
2023-04-16T18:45:53.923Z,33.60
2023-04-16T18:48:21.079Z,27.95
2023-04-16T18:50:47.967Z,25.73
2023-04-16T18:53:14.863Z,28.42
2023-04-16T18:55:41.665Z,26.85
2023-04-16T18:58:08.470Z,28.63
2023-04-16T19:00:35.432Z,30.08
2023-04-16T19:03:07.096Z,29.17
2023-04-16T19:05:34.288Z,28.83
2023-04-16T19:08:01.376Z,27.52
2023-04-16T19:10:28.275Z,28.70
2023-04-16T19:12:57.081Z,27.23
2023-04-16T19:15:23.956Z,27.97
2023-04-16T19:17:50.962Z,27.35
2023-04-16T19:20:17.932Z,29.45
2023-04-16T19:22:44.731Z,27.58
2023-04-16T19:25:11.638Z,26.30
2023-04-16T19:27:38.561Z,26.80
2023-04-16T19:30:06.703Z,30.13
2023-04-16T19:32:33.826Z,26.55
2023-04-16T19:35:00.635Z,25.92
2023-04-16T19:37:27.585Z,25.25
2023-04-16T19:39:54.946Z,27.53
2023-04-16T19:42:21.829Z,31.45
2023-04-16T19:44:48.669Z,28.23
2023-04-16T19:47:15.665Z,30.40
2023-04-16T19:49:43.745Z,26.80
2023-04-16T19:52:10.814Z,28.67
2023-04-16T19:54:37.791Z,27.60
2023-04-16T19:57:04.664Z,28.98
2023-04-16T19:59:32.275Z,31.25
2023-04-16T20:01:59.113Z,29.75
2023-04-16T20:04:26.172Z,31.33
2023-04-16T20:06:53.306Z,33.35
2023-04-16T20:09:20.201Z,31.73
2023-04-16T20:11:47.418Z,32.50
2023-04-16T20:14:14.265Z,37.72
2023-04-16T20:16:43.609Z,33.63
2023-04-16T20:19:10.983Z,35.17
2023-04-16T20:21:38.139Z,35.13
2023-04-16T20:24:05.170Z,30.63
2023-04-16T20:26:34.069Z,32.65
2023-04-16T20:29:01.093Z,36.70
2023-04-16T20:31:29.237Z,35.47
2023-04-16T20:33:56.199Z,33.72
2023-04-16T20:36:22.925Z,34.20
2023-04-16T20:38:51.506Z,36.40
2023-04-16T20:41:22.530Z,34.60
2023-04-16T20:43:50.253Z,38.05
2023-04-16T20:46:17.762Z,34.05
2023-04-16T20:48:44.775Z,37.88
2023-04-16T20:51:11.645Z,36.97
2023-04-16T20:53:38.481Z,40.30
2023-04-16T20:56:06.782Z,40.53
2023-04-16T20:58:33.761Z,35.53
2023-04-16T21:01:00.825Z,36.90
2023-04-16T21:03:27.800Z,40.28
2023-04-16T21:05:55.487Z,36.80
2023-04-16T21:08:22.988Z,41.10
2023-04-16T21:10:50.489Z,37.65
2023-04-16T21:13:17.538Z,38.70
2023-04-16T21:15:45.584Z,38.45
2023-04-16T21:18:12.789Z,36.37
2023-04-16T21:20:39.896Z,33.58
2023-04-16T21:23:07.048Z,40.58
2023-04-16T21:25:33.849Z,41.10
2023-04-16T21:28:00.717Z,40.95
2023-04-16T21:30:27.475Z,41.83
2023-04-16T21:32:54.871Z,40.47
2023-04-16T21:35:21.794Z,36.78
2023-04-16T21:37:48.575Z,37.10
2023-04-16T21:40:15.631Z,38.40
2023-04-16T21:42:42.577Z,33.73
2023-04-16T21:45:10.444Z,37.97
2023-04-16T21:47:37.941Z,33.17
2023-04-16T21:50:05.647Z,34.72
2023-04-16T21:52:32.965Z,35.05
2023-04-16T21:55:01.122Z,47.50
2023-04-16T21:57:27.883Z,38.70
2023-04-16T21:59:54.847Z,38.65
2023-04-16T22:02:21.755Z,39.78
2023-04-16T22:04:48.700Z,40.75
2023-04-16T22:07:16.857Z,37.57
2023-04-16T22:09:43.842Z,33.33
2023-04-16T22:12:10.669Z,34.60
2023-04-16T22:14:42.062Z,30.92
2023-04-16T22:17:14.905Z,33.80
2023-04-16T22:19:42.405Z,35.67
2023-04-16T22:22:09.178Z,34.88
2023-04-16T22:24:36.050Z,35.85
2023-04-16T22:27:03.083Z,35.42
2023-04-16T22:29:29.820Z,33.65
2023-04-16T22:31:56.776Z,32.00
2023-04-16T22:34:23.585Z,35.17
2023-04-16T22:36:50.659Z,33.88
2023-04-16T22:39:17.475Z,37.80
2023-04-16T22:41:44.212Z,31.05
2023-04-16T22:44:10.977Z,35.20
2023-04-16T22:46:37.788Z,31.88
2023-04-16T22:49:04.697Z,35.15
2023-04-16T22:51:31.556Z,32.22
2023-04-16T22:53:58.331Z,32.30
2023-04-16T22:56:28.758Z,32.43
2023-04-16T22:58:55.753Z,31.80
2023-04-16T23:01:23.367Z,32.28
2023-04-16T23:03:50.463Z,31.50
2023-04-16T23:06:17.455Z,32.55
2023-04-16T23:08:44.200Z,36.63
2023-04-16T23:11:11.260Z,33.85
2023-04-16T23:13:38.116Z,33.80
2023-04-16T23:16:05.366Z,38.63
2023-04-16T23:18:32.206Z,31.48
2023-04-16T23:20:59.051Z,32.90
2023-04-16T23:23:26.092Z,33.92
2023-04-16T23:25:53.927Z,33.28
2023-04-16T23:28:21.539Z,37.22
2023-04-16T23:30:52.233Z,34.00
2023-04-16T23:33:19.205Z,34.20
2023-04-16T23:35:47.447Z,35.05
2023-04-16T23:38:14.319Z,35.10
2023-04-16T23:40:41.187Z,32.10
2023-04-16T23:43:08.148Z,39.90
2023-04-16T23:45:35.021Z,32.57
2023-04-16T23:48:02.036Z,37.47
2023-04-16T23:50:28.925Z,33.15
2023-04-16T23:52:55.919Z,32.97
2023-04-16T23:55:22.842Z,38.05
2023-04-16T23:57:49.826Z,35.13
